Time;durP1;ratioP1;P1;durP2;ratioP2;P2;SDS_P1;SDS_P2;PMS_P1;PMS_P2;Temp;Humidity;BMP_temperature;BMP_pressure;BME280_temperature;BME280_humidity;BME280_pressure;Samples;Min_cycle;Max_cycle;Signal;HPM_P1;HPM_P2
2024/02/18 00:00:17;;;;;;;27.90;19.73;;;10.50;99.90;;;;;;4869441;29;20045;-81
2024/02/18 00:02:47;;;;;;;28.33;20.88;;;10.50;99.90;;;;;;4854068;29;20052;-81
2024/02/18 00:05:15;;;;;;;20.48;16.20;;;10.50;99.90;;;;;;4867597;29;20072;-81
2024/02/18 00:07:44;;;;;;;23.95;16.40;;;10.50;99.90;;;;;;4864189;29;20530;-81
2024/02/18 00:10:18;;;;;;;31.23;26.38;;;10.50;99.90;;;;;;4880489;29;20168;-81
2024/02/18 00:12:46;;;;;;;25.63;18.92;;;10.50;99.90;;;;;;4867154;29;20496;-81
2024/02/18 00:15:13;;;;;;;29.92;19.33;;;10.40;99.90;;;;;;4896691;29;20500;-82
2024/02/18 00:17:41;;;;;;;33.58;26.45;;;10.40;99.90;;;;;;4872085;29;20040;-82
2024/02/18 00:20:11;;;;;;;25.60;14.20;;;10.30;99.90;;;;;;4864472;29;20162;-81
2024/02/18 00:22:39;;;;;;;26.42;19.80;;;10.30;99.90;;;;;;4867427;29;20086;-82
2024/02/18 00:25:09;;;;;;;28.50;18.58;;;10.30;99.90;;;;;;4879894;29;20040;-82
2024/02/18 00:27:37;;;;;;;30.73;21.17;;;10.30;99.90;;;;;;4857428;29;20534;-82
2024/02/18 00:30:10;;;;;;;26.23;20.75;;;10.30;99.90;;;;;;4864500;29;20508;-82
2024/02/18 00:32:37;;;;;;;21.17;14.10;;;10.20;99.90;;;;;;4868702;29;20051;-82
2024/02/18 00:35:05;;;;;;;31.73;26.42;;;10.20;99.90;;;;;;4864456;29;20061;-82
2024/02/18 00:37:33;;;;;;;22.30;16.25;;;10.20;99.90;;;;;;4863317;29;20053;-82
2024/02/18 00:40:01;;;;;;;25.92;20.13;;;10.30;99.90;;;;;;4872193;29;20128;-81
2024/02/18 00:42:29;;;;;;;20.55;15.90;;;10.20;99.90;;;;;;4872911;29;20144;-81
2024/02/18 00:44:58;;;;;;;31.55;20.88;;;10.20;99.90;;;;;;4880582;29;20572;-82
2024/02/18 00:47:25;;;;;;;26.98;19.90;;;10.30;99.90;;;;;;4873894;29;20389;-81
2024/02/18 00:49:52;;;;;;;21.23;14.82;;;10.30;99.90;;;;;;4870629;29;20052;-82
2024/02/18 00:52:21;;;;;;;18.15;12.98;;;10.30;99.90;;;;;;4863662;29;20738;-79
2024/02/18 00:54:48;;;;;;;27.15;18.55;;;10.30;99.90;;;;;;4849598;29;20045;-81
2024/02/18 00:57:17;;;;;;;24.02;16.95;;;10.30;99.90;;;;;;4865884;29;20425;-81
2024/02/18 00:59:45;;;;;;;26.42;20.30;;;10.30;99.90;;;;;;4872619;29;20049;-82
2024/02/18 01:02:15;;;;;;;28.08;16.60;;;10.30;99.90;;;;;;4883224;29;20075;-82
2024/02/18 01:04:42;;;;;;;24.45;16.98;;;10.40;99.90;;;;;;4875826;29;20497;-80
2024/02/18 01:07:10;;;;;;;23.92;20.00;;;10.40;99.90;;;;;;4887384;29;20136;-81
2024/02/18 01:09:38;;;;;;;25.88;17.35;;;10.40;99.90;;;;;;4866286;29;20052;-81
2024/02/18 01:12:06;;;;;;;29.33;21.10;;;10.40;99.90;;;;;;4896509;29;20040;-81
2024/02/18 01:14:33;;;;;;;22.48;13.75;;;10.30;99.90;;;;;;4866819;29;20076;-81
2024/02/18 01:17:02;;;;;;;20.55;15.45;;;10.30;99.90;;;;;;4863087;29;20076;-81
2024/02/18 01:19:29;;;;;;;29.92;18.58;;;10.30;99.90;;;;;;4863376;29;20053;-81
2024/02/18 01:21:56;;;;;;;22.20;15.05;;;10.40;99.90;;;;;;4878448;29;20124;-81
2024/02/18 01:24:23;;;;;;;21.48;14.48;;;10.40;99.90;;;;;;4880235;29;20638;-82
2024/02/18 01:26:52;;;;;;;23.58;17.48;;;10.30;99.90;;;;;;4864660;29;20057;-82
2024/02/18 01:29:21;;;;;;;20.77;13.02;;;10.30;99.90;;;;;;4864994;29;20519;-82
2024/02/18 01:31:49;;;;;;;19.10;16.17;;;10.30;99.90;;;;;;4880025;29;20048;-82
2024/02/18 01:34:20;;;;;;;24.55;15.13;;;10.30;99.90;;;;;;4878419;29;20143;-82
2024/02/18 01:36:47;;;;;;;24.95;15.13;;;10.30;99.90;;;;;;4890664;29;20056;-82
2024/02/18 01:39:15;;;;;;;16.17;10.43;;;10.30;99.90;;;;;;4865981;29;20119;-82
2024/02/18 01:41:43;;;;;;;23.80;14.45;;;10.30;99.90;;;;;;4865574;29;20052;-81
2024/02/18 01:44:11;;;;;;;23.02;18.48;;;10.30;99.90;;;;;;4882335;29;20048;-81
2024/02/18 01:46:38;;;;;;;16.83;12.43;;;10.30;99.90;;;;;;4864903;29;20057;-82
2024/02/18 01:49:06;;;;;;;25.63;16.13;;;10.30;99.90;;;;;;4883710;29;20048;-82
2024/02/18 01:51:34;;;;;;;30.20;15.93;;;10.30;99.90;;;;;;4865729;29;20077;-81
2024/02/18 01:54:03;;;;;;;21.08;14.82;;;10.30;99.90;;;;;;4878523;29;20427;-82
2024/02/18 01:56:32;;;;;;;22.60;14.73;;;10.40;99.90;;;;;;4869063;29;20507;-82
2024/02/18 01:59:00;;;;;;;18.48;13.20;;;10.40;99.90;;;;;;4882305;29;20759;-81
2024/02/18 02:01:29;;;;;;;19.50;15.90;;;10.40;99.90;;;;;;4865094;29;20056;-82
2024/02/18 02:03:58;;;;;;;17.35;11.52;;;10.40;99.90;;;;;;4885608;29;20072;-82
2024/02/18 02:06:30;;;;;;;21.60;16.92;;;10.40;99.90;;;;;;4884035;29;20048;-81
2024/02/18 02:08:58;;;;;;;19.10;12.55;;;10.40;99.90;;;;;;4861116;29;20444;-81
2024/02/18 02:11:28;;;;;;;15.75;10.30;;;10.40;99.90;;;;;;4872335;29;20461;-81
2024/02/18 02:13:56;;;;;;;16.83;10.85;;;10.40;99.90;;;;;;4884513;29;20099;-80
2024/02/18 02:16:24;;;;;;;19.98;14.25;;;10.50;99.90;;;;;;4887492;29;20052;-81
2024/02/18 02:18:52;;;;;;;24.58;22.00;;;10.40;99.90;;;;;;4873704;29;21168;-81
2024/02/18 02:21:27;;;;;;;15.68;11.27;;;10.50;99.90;;;;;;4869966;29;20144;-81
2024/02/18 02:23:55;;;;;;;20.88;15.88;;;10.50;99.90;;;;;;4887502;29;20038;-81
2024/02/18 02:26:24;;;;;;;17.13;12.13;;;10.50;99.90;;;;;;4867755;29;20055;-82
2024/02/18 02:29:15;;;;;;;16.95;10.68;;;10.50;99.90;;;;;;4865113;29;20431;-81
2024/02/18 02:31:47;;;;;;;16.23;13.93;;;10.50;99.90;;;;;;4894291;29;20040;-81
2024/02/18 02:34:14;;;;;;;16.83;14.25;;;10.60;99.90;;;;;;4882000;29;20052;-81
2024/02/18 02:36:42;;;;;;;16.65;9.77;;;10.50;99.90;;;;;;4892141;29;20127;-81
2024/02/18 02:39:11;;;;;;;14.48;11.00;;;10.50;99.90;;;;;;4889333;29;20040;-81
2024/02/18 02:41:39;;;;;;;19.95;11.82;;;10.60;99.90;;;;;;4871428;29;20568;-81
2024/02/18 02:44:06;;;;;;;14.05;11.13;;;10.60;99.90;;;;;;4872793;29;20051;-81
2024/02/18 02:46:33;;;;;;;14.02;10.98;;;10.60;99.90;;;;;;4895889;29;20048;-81
2024/02/18 02:49:00;;;;;;;24.17;10.75;;;10.60;99.90;;;;;;4896825;29;20048;-82
2024/02/18 02:51:28;;;;;;;10.48;7.88;;;10.60;99.90;;;;;;4865240;29;20050;-80
2024/02/18 02:53:55;;;;;;;12.93;8.88;;;10.60;99.90;;;;;;4910929;29;20089;-81
2024/02/18 02:56:22;;;;;;;13.68;10.20;;;10.60;99.90;;;;;;4898616;29;20066;-81
2024/02/18 02:58:50;;;;;;;10.88;8.55;;;10.60;99.90;;;;;;4870444;29;20090;-82
2024/02/18 03:01:18;;;;;;;13.23;9.05;;;10.70;99.90;;;;;;4857729;29;20455;-81
2024/02/18 03:03:46;;;;;;;12.18;9.57;;;10.60;99.90;;;;;;4888995;29;20119;-81
2024/02/18 03:06:16;;;;;;;13.13;9.25;;;10.70;99.90;;;;;;4888130;29;20075;-82
2024/02/18 03:08:43;;;;;;;13.77;9.63;;;10.60;99.90;;;;;;4880834;29;20036;-81
2024/02/18 03:11:11;;;;;;;10.38;7.22;;;10.60;99.90;;;;;;4869387;29;20163;-82
2024/02/18 03:13:39;;;;;;;13.88;10.23;;;10.70;99.90;;;;;;4897723;29;20415;-82
2024/02/18 03:16:07;;;;;;;10.60;7.20;;;10.70;99.90;;;;;;4877440;29;20059;-81
2024/02/18 03:18:34;;;;;;;8.80;7.85;;;10.70;99.90;;;;;;4891646;29;20052;-81
2024/02/18 03:21:01;;;;;;;12.98;8.38;;;10.70;99.90;;;;;;4868006;29;20108;-81
2024/02/18 03:23:29;;;;;;;11.65;6.38;;;10.70;99.90;;;;;;4875107;29;20051;-81
2024/02/18 03:25:56;;;;;;;11.02;6.28;;;10.60;99.90;;;;;;4874492;29;20080;-82
2024/02/18 03:28:23;;;;;;;13.85;9.23;;;10.70;99.90;;;;;;4855596;29;20052;-81
2024/02/18 03:30:52;;;;;;;8.82;5.60;;;10.70;99.90;;;;;;4865182;29;20113;-81
2024/02/18 03:33:23;;;;;;;11.00;6.43;;;10.80;99.90;;;;;;4877912;29;20044;-81
2024/02/18 03:35:50;;;;;;;12.38;7.00;;;10.70;99.90;;;;;;4870595;29;20060;-81
2024/02/18 03:38:20;;;;;;;10.27;8.77;;;10.80;99.90;;;;;;4869786;29;20528;-81
2024/02/18 03:40:47;;;;;;;9.82;8.25;;;10.80;99.90;;;;;;4876630;29;20056;-81
2024/02/18 03:43:14;;;;;;;13.10;9.20;;;10.80;99.90;;;;;;4902934;29;20052;-80
2024/02/18 03:45:43;;;;;;;11.85;9.40;;;10.80;99.90;;;;;;4897572;29;20041;-81
2024/02/18 03:48:10;;;;;;;9.85;6.78;;;10.80;99.90;;;;;;4883115;29;20048;-80
2024/02/18 03:50:38;;;;;;;13.18;10.63;;;10.80;99.90;;;;;;4916407;29;20040;-80
2024/02/18 03:53:06;;;;;;;11.90;9.38;;;10.80;99.90;;;;;;4915652;29;20102;-81
2024/02/18 03:55:34;;;;;;;12.05;8.60;;;10.80;99.90;;;;;;4876738;29;20045;-82
2024/02/18 03:58:01;;;;;;;11.88;6.95;;;10.80;99.90;;;;;;4881821;29;20511;-81
2024/02/18 04:00:29;;;;;;;12.57;9.48;;;10.80;99.90;;;;;;4910036;29;20500;-81
2024/02/18 04:02:56;;;;;;;12.63;7.60;;;10.80;99.90;;;;;;4854208;29;20599;-82
2024/02/18 04:05:23;;;;;;;8.32;4.70;;;10.80;99.90;;;;;;4895794;29;20109;-81
2024/02/18 04:07:51;;;;;;;11.07;9.30;;;10.80;99.90;;;;;;4884698;29;20059;-81
2024/02/18 04:10:20;;;;;;;8.65;5.93;;;10.80;99.90;;;;;;4891544;29;20086;-81
2024/02/18 04:12:48;;;;;;;11.30;8.32;;;10.80;99.90;;;;;;4906717;29;20135;-82
2024/02/18 04:15:15;;;;;;;8.40;5.47;;;10.80;99.90;;;;;;4874232;29;20051;-82
2024/02/18 04:17:43;;;;;;;7.68;5.43;;;10.80;99.90;;;;;;4891763;29;20496;-82
2024/02/18 04:20:11;;;;;;;8.77;7.90;;;10.80;99.90;;;;;;4886257;29;20493;-82
2024/02/18 04:22:39;;;;;;;7.38;5.43;;;10.80;99.90;;;;;;4880727;29;20072;-81
2024/02/18 04:25:07;;;;;;;15.52;6.70;;;10.80;99.90;;;;;;4895825;29;20047;-80
2024/02/18 04:27:36;;;;;;;;;;;10.80;99.90;;;;;;4903644;29;20105;-81
2024/02/18 04:30:07;;;;;;;5.43;4.90;;;11.40;99.90;;;;;;4889770;29;19923;-81
2024/02/18 04:32:34;;;;;;;8.88;5.00;;;10.90;99.90;;;;;;4884053;29;20062;-81
2024/02/18 04:35:01;;;;;;;4.93;3.70;;;10.90;99.90;;;;;;4891052;29;20071;-82
2024/02/18 04:37:29;;;;;;;13.80;7.22;;;10.80;99.90;;;;;;4890888;29;20041;-81
2024/02/18 04:39:58;;;;;;;7.88;5.97;;;10.80;99.90;;;;;;4876510;29;20629;-81
2024/02/18 04:42:26;;;;;;;10.75;6.55;;;10.80;99.90;;;;;;4884641;29;20507;-82
2024/02/18 04:44:53;;;;;;;7.57;5.60;;;10.80;99.90;;;;;;4880694;29;20077;-83
2024/02/18 04:47:23;;;;;;;6.85;4.38;;;10.70;99.90;;;;;;4863248;29;20141;-82
2024/02/18 04:49:50;;;;;;;10.15;7.97;;;10.70;99.90;;;;;;4871149;29;20040;-81
2024/02/18 04:52:19;;;;;;;7.57;5.75;;;10.60;99.90;;;;;;4849521;29;20044;-82
2024/02/18 04:54:48;;;;;;;7.75;4.82;;;10.60;99.90;;;;;;4867865;29;20064;-82
2024/02/18 04:57:19;;;;;;;7.80;4.97;;;10.60;99.90;;;;;;4866240;29;20480;-82
2024/02/18 04:59:48;;;;;;;6.28;4.25;;;10.60;99.90;;;;;;4874591;29;20056;-82
2024/02/18 05:02:15;;;;;;;10.40;3.90;;;10.60;99.90;;;;;;4887405;29;20052;-82
2024/02/18 05:04:44;;;;;;;10.60;4.72;;;10.60;99.90;;;;;;4874216;29;20047;-82
2024/02/18 05:07:12;;;;;;;4.32;3.13;;;10.50;99.90;;;;;;4890345;29;20052;-82
2024/02/18 05:09:41;;;;;;;9.35;5.07;;;10.60;99.90;;;;;;4913902;29;20024;-83
2024/02/18 05:12:12;;;;;;;3.72;3.42;;;10.50;99.90;;;;;;4885140;29;20048;-82
2024/02/18 05:14:40;;;;;;;7.03;5.53;;;10.60;99.90;;;;;;4874881;29;20232;-82
2024/02/18 05:17:09;;;;;;;7.07;5.32;;;10.50;99.90;;;;;;4858594;29;20052;-82
2024/02/18 05:19:38;;;;;;;5.43;3.83;;;10.50;99.90;;;;;;4886821;29;20123;-82
2024/02/18 05:22:06;;;;;;;11.00;7.20;;;10.60;99.90;;;;;;4894047;29;20060;-82
2024/02/18 05:24:33;;;;;;;9.45;6.32;;;10.50;99.90;;;;;;4905163;29;20040;-82
2024/02/18 05:27:00;;;;;;;10.18;4.68;;;10.50;99.90;;;;;;4894560;29;20045;-82
2024/02/18 05:29:27;;;;;;;8.88;5.20;;;10.60;99.90;;;;;;4890524;29;20109;-83
2024/02/18 05:31:54;;;;;;;5.45;3.85;;;10.50;99.90;;;;;;4865237;29;20067;-82
2024/02/18 05:34:21;;;;;;;5.63;4.40;;;10.60;99.90;;;;;;4867906;29;20077;-82
2024/02/18 05:36:49;;;;;;;6.55;3.72;;;10.60;99.90;;;;;;4890607;29;20071;-83
2024/02/18 05:39:18;;;;;;;6.32;4.50;;;10.60;99.90;;;;;;4866922;29;20053;-83
2024/02/18 05:41:48;;;;;;;6.70;4.13;;;10.60;99.90;;;;;;4881024;29;20104;-83
2024/02/18 05:44:15;;;;;;;7.82;4.95;;;10.60;99.90;;;;;;4861946;29;20059;-83
2024/02/18 05:46:43;;;;;;;6.03;4.88;;;10.60;99.90;;;;;;4885732;29;20219;-82
2024/02/18 05:49:11;;;;;;;6.07;5.50;;;10.60;99.90;;;;;;4864379;29;20511;-82
2024/02/18 05:51:39;;;;;;;8.07;5.90;;;10.50;99.90;;;;;;4903767;29;20130;-82
2024/02/18 05:54:06;;;;;;;5.95;4.45;;;10.50;99.90;;;;;;4869155;29;20423;-82
2024/02/18 05:56:35;;;;;;;10.10;6.50;;;10.50;99.90;;;;;;4867588;29;20108;-83
2024/02/18 05:59:03;;;;;;;7.15;4.10;;;10.40;99.90;;;;;;4860882;29;20053;-82
2024/02/18 06:01:30;;;;;;;7.60;5.57;;;10.40;99.90;;;;;;4876096;29;20095;-82
2024/02/18 06:03:57;;;;;;;9.50;5.15;;;10.40;99.90;;;;;;4865659;29;20052;-83
2024/02/18 06:06:25;;;;;;;4.40;3.88;;;10.30;99.90;;;;;;4884588;29;20062;-83
2024/02/18 06:08:52;;;;;;;7.70;4.45;;;10.30;99.90;;;;;;4872292;29;20049;-83
2024/02/18 06:11:21;;;;;;;6.93;4.75;;;10.20;99.90;;;;;;4875176;29;20037;-82
2024/02/18 06:13:51;;;;;;;7.32;3.80;;;10.10;99.90;;;;;;4880711;29;20097;-83
2024/02/18 06:16:18;;;;;;;5.43;4.63;;;10.10;99.90;;;;;;4874472;29;20032;-82
2024/02/18 06:18:46;;;;;;;8.60;4.60;;;10.00;99.90;;;;;;4897354;29;20407;-82
2024/02/18 06:21:22;;;;;;;8.25;4.28;;;10.00;99.90;;;;;;4864572;29;20492;-82
2024/02/18 06:23:55;;;;;;;4.05;3.10;;;9.90;99.90;;;;;;4851261;29;20060;-82
2024/02/18 06:26:23;;;;;;;39.20;6.10;;;9.90;99.90;;;;;;4860908;29;20092;-82
2024/02/18 06:28:51;;;;;;;6.80;4.30;;;9.90;99.90;;;;;;4848157;29;20105;-82
2024/02/18 06:31:18;;;;;;;7.85;5.40;;;9.90;99.90;;;;;;4862881;29;20040;-82
2024/02/18 06:33:46;;;;;;;8.30;4.43;;;9.80;99.90;;;;;;4848264;29;20048;-82
2024/02/18 06:36:16;;;;;;;11.00;4.57;;;9.90;99.90;;;;;;4850193;29;20482;-82
2024/02/18 06:38:49;;;;;;;8.82;6.15;;;9.80;99.90;;;;;;4878386;29;20504;-82
2024/02/18 06:41:17;;;;;;;6.57;4.53;;;9.80;99.90;;;;;;4866545;29;20112;-82
2024/02/18 06:43:44;;;;;;;10.70;5.18;;;9.80;99.90;;;;;;4865699;29;20059;-82
2024/02/18 06:46:19;;;;;;;5.93;4.38;;;9.70;99.90;;;;;;4866866;29;20053;-81
2024/02/18 06:48:51;;;;;;;7.18;4.75;;;9.80;99.90;;;;;;4869870;29;20096;-82
2024/02/18 06:51:21;;;;;;;10.68;6.82;;;9.70;99.90;;;;;;4885474;29;20048;-81
2024/02/18 06:53:48;;;;;;;7.28;5.05;;;9.70;99.90;;;;;;4893171;29;20076;-80
2024/02/18 06:56:18;;;;;;;8.95;6.55;;;9.70;99.90;;;;;;4870173;29;20123;-81
2024/02/18 06:58:46;;;;;;;8.68;7.80;;;9.70;99.90;;;;;;4871804;29;20044;-81
2024/02/18 07:01:18;;;;;;;9.98;6.38;;;9.70;99.90;;;;;;4856483;29;20048;-81
2024/02/18 07:03:53;;;;;;;10.02;7.05;;;9.70;99.90;;;;;;4876162;29;20507;-81
2024/02/18 07:06:22;;;;;;;7.63;6.20;;;9.70;99.90;;;;;;4889388;29;20529;-80
2024/02/18 07:08:49;;;;;;;12.10;6.85;;;9.60;99.90;;;;;;4875846;29;20131;-82
2024/02/18 07:11:21;;;;;;;7.45;4.35;;;9.70;99.90;;;;;;4903672;29;20089;-81
2024/02/18 07:13:48;;;;;;;8.43;5.68;;;9.60;99.90;;;;;;4878302;29;20599;-82
2024/02/18 07:16:16;;;;;;;5.97;3.83;;;9.60;99.90;;;;;;4878185;29;20104;-82
2024/02/18 07:18:43;;;;;;;6.63;5.68;;;9.60;99.90;;;;;;4868556;29;20139;-82
2024/02/18 07:21:14;;;;;;;8.77;6.78;;;9.60;99.90;;;;;;4891438;29;20064;-81
2024/02/18 07:23:46;;;;;;;8.93;8.02;;;9.60;99.90;;;;;;4874645;29;20052;-81
2024/02/18 07:26:17;;;;;;;9.43;5.43;;;9.60;99.90;;;;;;4888094;29;20139;-81
2024/02/18 07:28:48;;;;;;;8.13;4.40;;;9.50;99.90;;;;;;4863670;29;20037;-82
2024/02/18 07:31:16;;;;;;;11.35;7.07;;;9.60;99.90;;;;;;4887259;29;20508;-82
2024/02/18 07:33:45;;;;;;;6.30;4.38;;;9.50;99.90;;;;;;4862016;29;20052;-82
2024/02/18 07:36:13;;;;;;;9.35;5.07;;;9.50;99.90;;;;;;4907958;29;20052;-82
2024/02/18 07:38:40;;;;;;;10.68;6.63;;;9.60;99.90;;;;;;4878367;29;20057;-81
2024/02/18 07:41:07;;;;;;;8.70;5.45;;;9.60;99.90;;;;;;4892027;29;20048;-80
2024/02/18 07:43:35;;;;;;;8.73;4.63;;;9.50;99.90;;;;;;4887693;29;20052;-80
2024/02/18 07:46:02;;;;;;;7.70;5.78;;;9.60;99.90;;;;;;4879210;29;20443;-81
2024/02/18 07:48:32;;;;;;;5.50;4.47;;;9.50;99.90;;;;;;4865419;29;20052;-81
2024/02/18 07:51:07;;;;;;;5.68;3.90;;;9.60;99.90;;;;;;4877679;29;20048;-82
2024/02/18 07:53:34;;;;;;;13.23;5.95;;;9.60;99.90;;;;;;4854203;29;20682;-82
2024/02/18 07:56:03;;;;;;;9.48;6.28;;;9.60;99.90;;;;;;4862411;29;20055;-81
2024/02/18 07:58:31;;;;;;;7.15;5.20;;;9.60;99.90;;;;;;4873899;29;20053;-81
2024/02/18 08:00:59;;;;;;;10.82;8.13;;;9.50;99.90;;;;;;4885717;29;20269;-81
2024/02/18 08:03:28;;;;;;;8.32;5.97;;;9.50;99.90;;;;;;4897377;29;20431;-81
2024/02/18 08:05:57;;;;;;;14.15;5.63;;;9.60;99.90;;;;;;4870047;29;20049;-81
2024/02/18 08:08:25;;;;;;;8.98;5.60;;;9.60;99.90;;;;;;4901941;29;20040;-80
2024/02/18 08:10:52;;;;;;;6.03;4.90;;;9.60;99.90;;;;;;4856619;29;20056;-81
2024/02/18 08:13:20;;;;;;;10.93;6.65;;;9.60;99.90;;;;;;4892951;29;20468;-81
2024/02/18 08:15:49;;;;;;;8.27;6.18;;;9.60;99.90;;;;;;4877480;29;20048;-81
2024/02/18 08:18:18;;;;;;;7.82;6.10;;;9.60;99.90;;;;;;4894373;29;20052;-81
2024/02/18 08:20:45;;;;;;;8.88;6.55;;;9.60;99.90;;;;;;4884546;29;20059;-81
2024/02/18 08:23:13;;;;;;;5.55;3.45;;;9.60;99.90;;;;;;4888822;29;20108;-81
2024/02/18 08:25:47;;;;;;;8.13;4.80;;;9.70;99.90;;;;;;4881456;29;20048;-81
2024/02/18 08:28:16;;;;;;;11.15;6.22;;;9.60;99.90;;;;;;4859826;29;20048;-81
2024/02/18 08:30:53;;;;;;;6.03;4.47;;;9.60;99.90;;;;;;4893867;29;20560;-81
2024/02/18 08:33:20;;;;;;;6.32;4.13;;;9.30;99.90;;;;;;4908391;29;20503;-82
2024/02/18 08:35:49;;;;;;;6.60;5.47;;;9.60;99.90;;;;;;4919228;29;20024;-82
2024/02/18 08:38:18;;;;;;;7.88;6.28;;;9.60;99.90;;;;;;4910760;29;20049;-82
2024/02/18 08:40:46;;;;;;;13.05;7.65;;;9.60;99.90;;;;;;4880829;29;20034;-83
2024/02/18 08:43:14;;;;;;;10.48;7.40;;;9.50;99.90;;;;;;4932949;29;20038;-83
2024/02/18 08:45:42;;;;;;;12.23;4.72;;;9.50;99.90;;;;;;4894480;29;20041;-83
2024/02/18 08:48:10;;;;;;;5.68;4.60;;;9.50;99.90;;;;;;4887687;29;20101;-83
2024/02/18 08:50:40;;;;;;;6.22;4.80;;;9.50;99.90;;;;;;4900018;29;20067;-82
2024/02/18 08:53:08;;;;;;;3.95;3.60;;;9.50;99.90;;;;;;4892012;29;20048;-82
2024/02/18 08:55:36;;;;;;;7.18;5.15;;;9.50;99.90;;;;;;4910868;29;20055;-82
2024/02/18 08:58:04;;;;;;;10.27;6.75;;;9.50;99.90;;;;;;4903706;29;20060;-82
2024/02/18 09:00:33;;;;;;;8.07;5.85;;;9.50;99.90;;;;;;4887399;29;20045;-83
2024/02/18 09:03:00;;;;;;;9.82;7.70;;;9.40;99.90;;;;;;4849997;29;20128;-82
2024/02/18 09:05:28;;;;;;;7.70;6.97;;;9.40;99.90;;;;;;4897283;29;20055;-82
2024/02/18 09:07:56;;;;;;;6.85;5.00;;;9.40;99.90;;;;;;4864556;29;20322;-82
2024/02/18 09:10:23;;;;;;;6.10;5.43;;;9.50;99.90;;;;;;4879476;29;20504;-82
2024/02/18 09:12:57;;;;;;;5.88;4.80;;;9.40;99.90;;;;;;4847466;29;20057;-83
2024/02/18 09:15:27;;;;;;;10.25;6.85;;;9.40;99.90;;;;;;4883855;29;20044;-83
2024/02/18 09:17:56;;;;;;;8.82;5.68;;;9.40;99.90;;;;;;4881176;29;20047;-84
2024/02/18 09:20:25;;;;;;;6.68;3.97;;;9.30;99.90;;;;;;4881445;29;20071;-84
2024/02/18 09:22:52;;;;;;;6.93;4.22;;;9.30;99.90;;;;;;4881443;29;20048;-83
2024/02/18 09:25:19;;;;;;;5.90;3.83;;;9.30;99.90;;;;;;4881975;29;20112;-83
2024/02/18 09:27:48;;;;;;;6.60;4.35;;;9.30;99.90;;;;;;4879315;29;20108;-84
2024/02/18 09:30:16;;;;;;;6.28;4.20;;;9.30;99.90;;;;;;4889374;29;20040;-83
2024/02/18 09:32:46;;;;;;;6.47;5.82;;;9.30;99.90;;;;;;4847299;29;20159;-83
2024/02/18 09:35:13;;;;;;;6.97;4.65;;;9.30;99.90;;;;;;4887137;29;20511;-83
2024/02/18 09:37:43;;;;;;;9.55;5.38;;;9.30;99.90;;;;;;4876796;29;20116;-84
2024/02/18 09:40:11;;;;;;;6.43;4.25;;;9.30;99.90;;;;;;4852388;29;20056;-83
2024/02/18 09:42:42;;;;;;;6.72;4.35;;;9.20;99.90;;;;;;4879151;29;20044;-82
2024/02/18 09:45:16;;;;;;;6.47;4.07;;;9.30;99.90;;;;;;4863593;29;20048;-83
2024/02/18 09:47:48;;;;;;;7.72;5.32;;;9.20;99.90;;;;;;4863392;29;20040;-83
2024/02/18 09:50:15;;;;;;;6.57;4.50;;;9.30;99.90;;;;;;4864153;29;20036;-83
2024/02/18 09:52:46;;;;;;;7.38;4.72;;;9.30;99.90;;;;;;4875883;29;20527;-83
2024/02/18 09:55:15;;;;;;;7.45;5.20;;;9.30;99.90;;;;;;4894314;29;20055;-83
2024/02/18 09:57:46;;;;;;;6.47;3.85;;;9.30;99.90;;;;;;4896491;29;20055;-83
2024/02/18 10:00:14;;;;;;;6.90;5.28;;;9.40;99.90;;;;;;4897064;29;20060;-82
2024/02/18 10:02:42;;;;;;;7.90;4.57;;;9.40;99.90;;;;;;4882206;29;20091;-83
2024/02/18 10:05:10;;;;;;;5.43;4.78;;;9.40;99.90;;;;;;4896246;29;20064;-83
2024/02/18 10:07:38;;;;;;;5.20;4.80;;;9.40;99.90;;;;;;4874307;29;20055;-83
2024/02/18 10:10:09;;;;;;;6.20;4.95;;;9.40;99.90;;;;;;4889876;29;20055;-83
2024/02/18 10:12:36;;;;;;;7.47;5.75;;;9.40;99.90;;;;;;4864652;29;20556;-82
2024/02/18 10:15:07;;;;;;;6.85;6.20;;;9.40;99.90;;;;;;4889813;29;20044;-82
2024/02/18 10:17:34;;;;;;;8.48;6.28;;;9.40;99.90;;;;;;4874500;29;20052;-82
2024/02/18 10:20:04;;;;;;;8.85;6.80;;;9.40;99.90;;;;;;4872249;29;20583;-82
2024/02/18 10:22:33;;;;;;;5.10;4.28;;;9.30;99.90;;;;;;4884908;29;20060;-82
2024/02/18 10:25:00;;;;;;;8.55;5.28;;;9.40;99.90;;;;;;4863538;29;20708;-83
2024/02/18 10:27:28;;;;;;;6.28;5.07;;;9.40;99.90;;;;;;4886620;29;20040;-82
2024/02/18 10:29:56;;;;;;;6.03;4.43;;;9.40;99.90;;;;;;4873197;29;20135;-82
2024/02/18 10:32:25;;;;;;;6.72;5.20;;;9.40;99.90;;;;;;4853511;29;20056;-83
2024/02/18 10:34:54;;;;;;;7.95;6.30;;;9.40;99.90;;;;;;4912546;29;20055;-82
2024/02/18 10:37:37;;;;;;;7.15;5.78;;;9.40;99.90;;;;;;4853513;29;20040;-83
2024/02/18 10:40:39;;;;;;;3.00;2.63;;;9.40;99.90;;;;;;4878629;29;20051;-84
2024/02/18 10:43:10;;;;;;;8.32;4.90;;;9.50;99.90;;;;;;4832668;29;20044;-83
2024/02/18 10:45:42;;;;;;;5.10;4.53;;;9.50;99.90;;;;;;4874154;29;20373;-83
2024/02/18 10:48:12;;;;;;;7.57;5.78;;;9.50;99.90;;;;;;4856524;29;20055;-83
2024/02/18 10:50:46;;;;;;;4.93;4.45;;;9.50;99.90;;;;;;4894903;29;20099;-83
2024/02/18 10:53:42;;;;;;;6.95;5.72;;;9.50;99.90;;;;;;4901421;29;20048;-83
2024/02/18 10:56:20;;;;;;;8.40;4.90;;;9.40;99.90;;;;;;4876183;29;20468;-83
2024/02/18 10:59:05;;;;;;;4.78;4.30;;;9.50;99.90;;;;;;4894643;29;20147;-82
2024/02/18 11:01:39;;;;;;;5.70;5.00;;;9.50;99.90;;;;;;4879803;29;20059;-83
2024/02/18 11:04:09;;;;;;;6.82;4.63;;;9.40;99.90;;;;;;4891636;29;20507;-83
2024/02/18 11:06:37;;;;;;;8.90;4.70;;;9.40;99.90;;;;;;4896063;29;20123;-83
2024/02/18 11:09:08;;;;;;;5.75;5.15;;;9.40;99.90;;;;;;4886939;29;20048;-83
2024/02/18 11:11:36;;;;;;;6.35;5.57;;;9.30;99.90;;;;;;4853577;29;20131;-83
2024/02/18 11:14:06;;;;;;;6.00;5.03;;;9.30;99.90;;;;;;4878280;29;20109;-83
2024/02/18 11:16:37;;;;;;;6.70;5.43;;;9.20;99.90;;;;;;4879033;29;20105;-83
2024/02/18 11:19:07;;;;;;;5.32;4.78;;;9.30;99.90;;;;;;4852874;29;20057;-83
2024/02/18 11:21:35;;;;;;;4.70;3.70;;;9.30;99.90;;;;;;4873672;29;20045;-82
2024/02/18 11:24:06;;;;;;;5.93;4.25;;;9.30;99.90;;;;;;4860117;29;20048;-82
2024/02/18 11:26:33;;;;;;;7.30;4.45;;;9.30;99.90;;;;;;4868279;29;20049;-82
2024/02/18 11:29:02;;;;;;;6.88;4.63;;;9.20;99.90;;;;;;4880361;29;20040;-82
2024/02/18 11:31:30;;;;;;;4.93;4.40;;;9.20;99.90;;;;;;4883750;29;20045;-82
2024/02/18 11:33:57;;;;;;;5.32;4.75;;;9.20;99.90;;;;;;4898607;29;20047;-82
2024/02/18 11:36:29;;;;;;;7.30;6.20;;;9.20;99.90;;;;;;4898610;29;20045;-82
2024/02/18 11:38:57;;;;;;;6.05;4.78;;;9.10;99.90;;;;;;4901709;29;20125;-82
2024/02/18 11:41:32;;;;;;;6.38;4.22;;;9.20;99.90;;;;;;4883211;29;20135;-83
2024/02/18 11:44:12;;;;;;;5.35;4.68;;;9.10;99.90;;;;;;4880760;29;20053;-82
2024/02/18 11:46:45;;;;;;;8.18;6.97;;;9.10;99.90;;;;;;4883283;29;20044;-82
2024/02/18 11:49:14;;;;;;;7.50;4.53;;;9.10;99.90;;;;;;4881681;29;20527;-82
2024/02/18 11:51:42;;;;;;;5.78;4.80;;;9.10;99.90;;;;;;4868865;29;20514;-82
2024/02/18 11:54:10;;;;;;;5.95;5.43;;;9.10;99.90;;;;;;4865972;29;20148;-82
2024/02/18 11:56:40;;;;;;;5.82;4.38;;;9.00;99.90;;;;;;4880371;29;20052;-82
2024/02/18 11:59:10;;;;;;;6.20;5.35;;;9.00;99.90;;;;;;4866305;29;20558;-82
2024/02/18 12:01:38;;;;;;;3.97;3.65;;;9.00;99.90;;;;;;4849768;29;20051;-83
2024/02/18 12:04:06;;;;;;;4.35;3.53;;;9.00;99.90;;;;;;4861781;29;20053;-83
2024/02/18 12:06:35;;;;;;;3.88;3.13;;;9.00;99.90;;;;;;4880142;29;20416;-82
2024/02/18 12:09:12;;;;;;;4.95;1.95;;;9.10;99.90;;;;;;4881345;29;20048;-82
2024/02/18 12:11:45;;;;;;;6.32;4.30;;;9.00;99.90;;;;;;4889699;29;20071;-83
2024/02/18 12:14:13;;;;;;;4.90;3.63;;;9.00;99.90;;;;;;4897022;29;20049;-82
2024/02/18 12:16:45;;;;;;;4.28;3.50;;;9.00;99.90;;;;;;4881972;29;20052;-82
2024/02/18 12:19:14;;;;;;;5.05;3.03;;;9.00;99.90;;;;;;4856596;29;20051;-83
2024/02/18 12:21:41;;;;;;;7.60;4.22;;;9.10;99.90;;;;;;4894077;29;20084;-83
2024/02/18 12:24:08;;;;;;;3.63;3.33;;;9.00;99.90;;;;;;4880427;29;20049;-83
2024/02/18 12:26:36;;;;;;;5.22;4.22;;;9.00;99.90;;;;;;4880239;29;20045;-84
2024/02/18 12:29:04;;;;;;;5.35;3.47;;;9.00;99.90;;;;;;4880437;29;20037;-84
2024/02/18 12:31:34;;;;;;;3.63;3.00;;;9.00;99.90;;;;;;4880577;29;20044;-82
2024/02/18 12:34:02;;;;;;;3.15;2.85;;;9.00;99.90;;;;;;4868457;29;20137;-83
2024/02/18 12:36:29;;;;;;;2.88;2.55;;;9.00;99.90;;;;;;4862825;29;20069;-82
2024/02/18 12:38:57;;;;;;;3.70;2.55;;;9.00;99.90;;;;;;4895964;29;20056;-83
2024/02/18 12:41:25;;;;;;;3.90;3.53;;;8.90;99.90;;;;;;4865823;29;20393;-83
2024/02/18 12:43:54;;;;;;;2.53;2.33;;;8.90;99.90;;;;;;4851751;29;20056;-82
2024/02/18 12:46:37;;;;;;;3.63;2.67;;;8.90;99.90;;;;;;4885872;29;20037;-81
2024/02/18 12:49:05;;;;;;;3.17;2.90;;;9.00;99.90;;;;;;4878334;29;20048;-82
2024/02/18 12:51:34;;;;;;;2.15;1.95;;;8.90;99.90;;;;;;4892151;29;20049;-82
2024/02/18 12:54:01;;;;;;;3.20;2.85;;;8.90;99.90;;;;;;4867242;29;20045;-81